This is the latest recevied weather packets stored in our database for station/object OK2ZA-6. If no packets are shown the sender has not sent any weather packets the latest 10 day(s).
| Time | Temp. | Humidity | Pressure | Rain* | Wind** | Luminosity | Snow |
|---|---|---|---|---|---|---|---|
| 1777669204 | 12.78° C | 55% | 1025.6 hPa | 0 mm | - | - | - |
| 1777668605 | 12.78° C | 55% | 1025.6 hPa | 0 mm | - | - | - |
| 1777668004 | 13.33° C | 54% | 1025.6 hPa | 0 mm | - | - | - |
| 1777667404 | 13.33° C | 53% | 1025.5 hPa | 0 mm | - | - | - |
| 1777666804 | 13.33° C | 54% | 1025.5 hPa | 0 mm | - | - | - |
| 1777666205 | 13.33° C | 55% | 1025.4 hPa | 0 mm | - | - | - |
| 1777665604 | 12.78° C | 57% | 1025.3 hPa | 0 mm | - | - | - |
| 1777665004 | 12.78° C | 58% | 1025.3 hPa | 0 mm | - | - | - |
| 1777664404 | 12.78° C | 57% | 1025.3 hPa | 0 mm | - | - | - |
| 1777663804 | 12.78° C | 57% | 1025.3 hPa | 0 mm | - | - | - |
| 1777663204 | 13.33° C | 56% | 1025.3 hPa | 0 mm | - | - | - |
| 1777662605 | 13.33° C | 55% | 1025.3 hPa | 0 mm | - | - | - |
| 1777662004 | 13.89° C | 54% | 1025.2 hPa | 0 mm | - | - | - |
| 1777661403 | 13.89° C | 53% | 1025.2 hPa | 0 mm | - | - | - |
| 1777660803 | 14.44° C | 52% | 1025.1 hPa | 0 mm | - | - | - |
| 1777660204 | 15.56° C | 49% | 1025.1 hPa | 0 mm | - | - | - |
| 1777659604 | 16.11° C | 47% | 1024.9 hPa | 0 mm | - | - | - |
| 1777659003 | 16.67° C | 46% | 1024.7 hPa | 0 mm | - | - | - |
| 1777658405 | 17.22° C | 45% | 1024.7 hPa | 0 mm | - | - | - |
| 1777657804 | 17.78° C | 43% | 1024.7 hPa | 0 mm | - | - | - |
| 1777657204 | 17.78° C | 43% | 1024.6 hPa | 0 mm | - | - | - |
| 1777656603 | 18.33° C | 42% | 1024.5 hPa | 0 mm | - | - | - |
| 1777656004 | 18.33° C | 41% | 1024.5 hPa | 0 mm | - | - | - |
| 1777655404 | 18.33° C | 41% | 1024.5 hPa | 0 mm | - | - | - |
| 1777654803 | 18.89° C | 39% | 1024.6 hPa | 0 mm | - | - | - |
* Rain latest hour (hover to see other rain measurements)
** Current wind speed in m/s (hover to see current wind gust speed)